Fairlee, Vermont
Current Conditions -  °F | °C
As of 9:53 AM on Thursday 18 Dec 2014 (Local Time) from KLEB Reporting Station
Overcast Overcast  
Wind Chill: 35°   Ceiling: 2000
Heat Index: 35°   Visibility: 10mi
Dew Point: 32°   Wind: 3mph
Humidity: 89%   Direction: 140°SE
Pressure: 29.79"   Gusts: NA
Location:  43.91°N, 72.14°W
Report Text: KLEB 181453Z 14003KT 10SM BKN020 BKN026 OVC030 02/00 A2979 RMK AO2 SLP094 T00170000 51016
Loading
Personal Weather Stations






























Interactive Weather Map New forecast layout! Learn more

10-Day Weather Forecast

Advertisements
Track Severe Weather on mobile